Time;durP1;ratioP1;P1;durP2;ratioP2;P2;SDS_P1;SDS_P2;PMS_P1;PMS_P2;Temp;Humidity;BMP_temperature;BMP_pressure;BME280_temperature;BME280_humidity;BME280_pressure;Samples;Min_cycle;Max_cycle;Signal;HPM_P1;HPM_P2
2023/05/16 00:02:50;;;;;;;13.02;2.67;;;;;;;19.81;39.02;101896.03;16106285;19;130064;-40
2023/05/16 00:08:12;;;;;;;11.43;2.50;;;;;;;19.79;39.09;101898.19;16105679;19;130113;-46
2023/05/16 00:13:34;;;;;;;12.20;2.50;;;;;;;19.76;39.16;101893.09;16102520;19;131188;-47
2023/05/16 00:18:56;;;;;;;10.02;2.45;;;;;;;19.74;39.26;101896.13;16113704;19;131366;-45
2023/05/16 00:24:18;;;;;;;12.02;2.78;;;;;;;19.74;39.11;101898.03;16118865;19;130213;-44
2023/05/16 00:29:40;;;;;;;12.38;2.17;;;;;;;19.73;39.24;101893.56;16119711;19;129112;-44
2023/05/16 00:35:02;;;;;;;12.10;2.58;;;;;;;19.70;39.18;101889.31;16111404;19;130293;-48
2023/05/16 00:40:24;;;;;;;13.32;2.97;;;;;;;19.68;38.87;101892.34;16125028;19;130865;-43
2023/05/16 00:45:47;;;;;;;7.72;2.20;;;;;;;19.66;39.34;101883.38;16119999;19;130201;-45
2023/05/16 00:51:09;;;;;;;9.65;2.28;;;;;;;19.64;39.11;101893.84;16117801;19;129765;-43
2023/05/16 00:56:32;;;;;;;8.63;2.13;;;;;;;19.63;38.94;101894.09;16120938;19;129697;-46
2023/05/16 01:01:55;;;;;;;9.27;2.28;;;;;;;19.64;39.11;101901.31;16117185;19;131816;-45
2023/05/16 01:07:17;;;;;;;7.80;1.98;;;;;;;19.60;39.15;101889.84;16113800;19;131294;-46
2023/05/16 01:12:56;;;;;;;10.18;2.10;;;;;;;19.59;38.84;101899.25;16117424;19;131853;-46
2023/05/16 01:18:33;;;;;;;8.30;1.90;;;;;;;19.58;39.02;101891.97;16115587;19;130328;-44
2023/05/16 01:24:07;;;;;;;8.88;2.40;;;;;;;19.57;39.29;101895.00;16121309;19;129932;-46
2023/05/16 01:29:29;;;;;;;8.32;2.22;;;;;;;19.54;38.92;101896.31;16117046;19;129895;-47
2023/05/16 01:34:51;;;;;;;8.15;2.08;;;;;;;19.52;39.10;101893.75;16116482;19;129698;-47
2023/05/16 01:40:34;;;;;;;7.00;2.00;;;;;;;19.53;39.13;101895.44;16114940;19;131143;-43
2023/05/16 01:46:08;;;;;;;7.10;2.45;;;;;;;19.52;38.88;101901.25;16116361;19;132385;-48
2023/05/16 01:51:34;;;;;;;10.93;2.53;;;;;;;19.50;38.94;101912.59;16117710;19;130483;-44
2023/05/16 01:56:57;;;;;;;8.23;1.92;;;;;;;19.48;39.17;101920.28;16119583;19;130203;-47
2023/05/16 02:02:19;;;;;;;9.32;2.10;;;;;;;19.47;39.21;101917.72;16107905;19;130232;-41
2023/05/16 02:07:42;;;;;;;7.47;1.73;;;;;;;19.47;38.95;101928.81;16117262;19;130326;-43
2023/05/16 02:13:04;;;;;;;9.82;2.45;;;;;;;19.45;39.21;101925.41;16117075;19;131304;-44
2023/05/16 02:18:28;;;;;;;7.00;1.77;;;;;;;19.44;39.24;101912.66;16111074;19;129634;-43
2023/05/16 02:23:50;;;;;;;6.80;1.77;;;;;;;19.43;39.19;101922.03;16113967;19;131189;-41
2023/05/16 02:29:14;;;;;;;7.75;1.83;;;;;;;19.42;39.06;101926.72;16110810;19;130640;-42
2023/05/16 02:34:35;;;;;;;9.00;2.00;;;;;;;19.40;39.36;101925.28;16112631;19;130595;-43
2023/05/16 02:39:57;;;;;;;7.00;1.80;;;;;;;19.37;39.39;101930.19;16109896;19;129764;-42
2023/05/16 02:45:20;;;;;;;8.10;1.60;;;;;;;19.36;39.16;101933.22;16109491;19;130985;-44
2023/05/16 02:50:41;;;;;;;9.07;1.80;;;;;;;19.35;39.45;101940.66;16111577;19;129416;-41
2023/05/16 02:56:05;;;;;;;5.53;1.95;;;;;;;19.34;39.15;101947.28;16109118;19;129398;-42
2023/05/16 03:01:27;;;;;;;8.18;1.98;;;;;;;19.34;39.22;101947.28;16105167;19;131190;-42
2023/05/16 03:06:50;;;;;;;7.50;1.70;;;;;;;19.32;39.40;101957.75;16110195;19;130196;-44
2023/05/16 03:12:11;;;;;;;5.63;1.70;;;;;;;19.30;39.10;101965.47;16109744;19;130730;-41
2023/05/16 03:17:34;;;;;;;8.40;2.05;;;;;;;19.30;38.91;101978.50;16107271;19;131029;-42
2023/05/16 03:22:56;;;;;;;9.95;2.00;;;;;;;19.28;38.90;101975.94;16107951;19;129916;-41
2023/05/16 03:28:17;;;;;;;10.50;1.67;;;;;;;19.27;39.14;101967.84;16108444;19;131154;-41
2023/05/16 03:33:39;;;;;;;6.95;1.73;;;;;;;19.26;39.28;101972.53;16107575;19;129757;-45
2023/05/16 03:39:01;;;;;;;6.65;1.77;;;;;;;19.24;39.15;101969.16;16106894;19;132252;-41
2023/05/16 03:44:23;;;;;;;7.32;1.92;;;;;;;19.23;39.38;101973.00;16106762;19;132608;-43
2023/05/16 03:49:45;;;;;;;7.63;1.90;;;;;;;19.21;38.89;101973.22;16100124;19;132259;-44
2023/05/16 03:55:08;;;;;;;8.95;1.85;;;;;;;19.20;39.19;101988.13;16109457;19;129610;-41
2023/05/16 04:00:29;;;;;;;7.03;1.98;;;;;;;19.19;39.32;101993.91;16123079;19;130660;-41
2023/05/16 04:05:51;;;;;;;7.75;2.15;;;;;;;19.18;39.27;101997.75;16118438;19;129586;-45
2023/05/16 04:11:13;;;;;;;5.30;1.67;;;;;;;19.17;39.26;102001.59;16123206;19;129882;-43
2023/05/16 04:16:35;;;;;;;6.10;1.63;;;;;;;19.17;39.10;102004.38;16121155;19;131517;-45
2023/05/16 04:21:57;;;;;;;5.75;1.65;;;;;;;19.16;39.37;102011.84;16121948;19;130090;-45
2023/05/16 04:27:19;;;;;;;4.25;1.27;;;;;;;19.16;39.05;102017.38;16120548;19;131375;-41
2023/05/16 04:32:40;;;;;;;7.80;1.52;;;;;;;19.15;39.06;102024.00;16117067;19;129516;-45
2023/05/16 04:38:03;;;;;;;5.32;1.38;;;;;;;19.15;39.36;102026.78;16123944;19;129912;-43
2023/05/16 04:43:25;;;;;;;6.15;1.80;;;;;;;19.14;39.36;102024.25;16118435;19;132371;-42
2023/05/16 04:48:47;;;;;;;6.75;1.77;;;;;;;19.14;39.07;102027.84;16117051;19;130185;-42
2023/05/16 04:54:09;;;;;;;6.32;1.63;;;;;;;19.11;38.99;102031.09;16112049;19;130392;-41
2023/05/16 04:59:31;;;;;;;7.05;1.50;;;;;;;19.10;39.21;102042.38;16115392;19;130507;-45
2023/05/16 05:04:53;;;;;;;6.07;1.30;;;;;;;19.10;39.36;102047.94;16115216;19;130623;-50
2023/05/16 05:10:15;;;;;;;4.47;1.38;;;;;;;19.09;39.03;102044.31;16121007;19;130539;-50
2023/05/16 05:15:37;;;;;;;4.72;1.52;;;;;;;19.11;38.89;102046.88;16120953;19;130092;-43
2023/05/16 05:20:59;;;;;;;5.70;1.20;;;;;;;19.20;38.91;102051.09;16118492;19;131156;-41
2023/05/16 05:26:21;;;;;;;7.60;1.50;;;;;;;19.26;39.30;102053.00;16105285;19;130629;-42
2023/05/16 05:31:46;;;;;;;8.10;1.93;;;;;;;19.36;39.15;102056.13;16108702;19;131954;-42
2023/05/16 05:37:08;;;;;;;8.18;2.03;;;;;;;19.45;38.86;102058.63;16110724;19;134443;-41
2023/05/16 05:42:30;;;;;;;9.15;2.00;;;;;;;19.52;38.73;102059.44;16113924;19;130307;-39
2023/05/16 05:47:51;;;;;;;9.90;2.05;;;;;;;19.61;38.58;102063.63;16109624;19;130708;-40
2023/05/16 05:53:13;;;;;;;11.32;2.72;;;;;;;19.69;38.27;102073.63;16113187;19;130930;-39
2023/05/16 05:58:35;;;;;;;10.18;2.08;;;;;;;19.76;38.37;102085.50;16112881;19;130107;-39
2023/05/16 06:03:57;;;;;;;10.82;2.22;;;;;;;19.81;38.34;102087.63;16114082;19;129768;-42
2023/05/16 06:09:22;;;;;;;9.37;2.33;;;;;;;19.88;38.35;102095.91;16111199;19;130690;-40
2023/05/16 06:14:44;;;;;;;7.38;1.90;;;;;;;19.93;38.17;102087.75;16114616;19;130811;-40
2023/05/16 06:20:06;;;;;;;6.00;2.25;;;;;;;19.98;37.72;102096.25;16115228;19;130335;-42
2023/05/16 06:25:29;;;;;;;9.40;2.08;;;;;;;20.03;37.83;102099.22;16113420;19;129551;-42
2023/05/16 06:30:51;;;;;;;10.48;2.15;;;;;;;20.08;37.61;102102.16;16114270;19;129900;-41
2023/05/16 06:36:12;;;;;;;10.68;2.50;;;;;;;20.13;37.95;102110.66;16117106;19;129689;-39
2023/05/16 06:41:34;;;;;;;6.28;1.90;;;;;;;20.15;37.64;102107.66;16116643;19;129636;-39
2023/05/16 06:46:56;;;;;;;11.45;1.70;;;;;;;20.19;37.48;102103.34;16115012;19;130880;-41
2023/05/16 06:52:18;;;;;;;7.10;1.80;;;;;;;20.23;37.32;102109.31;16113794;19;131193;-39
2023/05/16 06:57:40;;;;;;;9.13;2.35;;;;;;;20.27;37.33;102105.84;16112038;19;129275;-40
2023/05/16 07:03:05;;;;;;;6.28;1.85;;;;;;;20.32;37.41;102098.72;16110992;19;131644;-41
